Time;durP1;ratioP1;P1;durP2;ratioP2;P2;SDS_P1;SDS_P2;PMS_P1;PMS_P2;Temp;Humidity;BMP_temperature;BMP_pressure;BME280_temperature;BME280_humidity;BME280_pressure;Samples;Min_cycle;Max_cycle;Signal;HPM_P1;HPM_P2
2023/10/19 00:01:56;;;;;;;17.13;14.93;;;7.50;1.00;;;;;;5148564;27;21043;-71
2023/10/19 00:04:23;;;;;;;18.50;16.58;;;7.50;1.00;;;;;;5156187;27;20759;-70
2023/10/19 00:06:50;;;;;;;17.48;15.38;;;7.50;1.00;;;;;;5155992;27;20238;-72
2023/10/19 00:09:16;;;;;;;20.52;15.88;;;7.50;1.00;;;;;;5154318;27;20320;-70
2023/10/19 00:11:44;;;;;;;17.40;15.00;;;7.50;1.00;;;;;;5154925;27;21129;-71
2023/10/19 00:14:15;;;;;;;17.23;14.68;;;7.50;1.00;;;;;;5154815;27;20256;-71
2023/10/19 00:16:44;;;;;;;18.58;16.13;;;7.50;1.00;;;;;;5135421;27;20774;-71
2023/10/19 00:19:19;;;;;;;17.13;15.38;;;7.50;1.00;;;;;;5154953;27;20238;-71
2023/10/19 00:21:54;;;;;;;17.45;15.57;;;7.50;1.00;;;;;;5154213;27;20239;-71
2023/10/19 00:24:23;;;;;;;17.38;15.25;;;7.50;1.00;;;;;;5154497;27;20234;-71
2023/10/19 00:26:54;;;;;;;18.85;16.95;;;7.50;1.00;;;;;;5153480;27;20983;-71
2023/10/19 00:29:32;;;;;;;16.95;15.18;;;7.50;1.00;;;;;;5133004;27;20291;-71
2023/10/19 00:31:59;;;;;;;17.42;14.88;;;7.50;1.00;;;;;;5107883;27;20241;-75
2023/10/19 00:34:26;;;;;;;16.55;14.05;;;7.50;1.00;;;;;;5151808;27;20680;-75
2023/10/19 00:36:54;;;;;;;15.50;13.90;;;7.50;1.00;;;;;;5151998;27;20231;-75
2023/10/19 00:39:22;;;;;;;17.42;15.23;;;7.50;1.00;;;;;;5152773;27;20238;-74
2023/10/19 00:41:50;;;;;;;19.73;15.32;;;7.50;1.00;;;;;;5152345;27;20384;-75
2023/10/19 00:44:22;;;;;;;19.17;15.65;;;7.50;1.00;;;;;;5150841;27;20235;-75
2023/10/19 00:47:00;;;;;;;17.85;15.20;;;7.40;1.00;;;;;;5152372;27;20240;-76
2023/10/19 00:49:27;;;;;;;19.98;15.40;;;7.40;1.00;;;;;;5150525;27;20326;-76
2023/10/19 00:52:03;;;;;;;17.92;15.65;;;7.40;1.00;;;;;;5148514;27;20238;-76
2023/10/19 00:54:35;;;;;;;17.20;15.48;;;7.40;1.00;;;;;;5150328;27;20743;-74
2023/10/19 00:57:10;;;;;;;17.63;15.65;;;7.50;1.00;;;;;;5137857;27;20712;-75
2023/10/19 00:59:43;;;;;;;17.90;15.93;;;7.40;1.00;;;;;;5131755;27;20238;-73
2023/10/19 01:02:17;;;;;;;21.10;15.20;;;7.40;1.00;;;;;;5144680;27;20267;-72
2023/10/19 01:04:46;;;;;;;20.58;15.63;;;7.40;1.00;;;;;;5152218;27;20687;-73
2023/10/19 01:07:15;;;;;;;21.15;18.10;;;7.30;1.00;;;;;;5153720;27;20237;-74
2023/10/19 01:09:44;;;;;;;17.92;16.02;;;7.30;1.00;;;;;;5153623;27;20238;-76
2023/10/19 01:12:25;;;;;;;23.73;16.65;;;7.30;1.00;;;;;;5154051;27;20336;-75
2023/10/19 01:15:13;;;;;;;17.90;16.00;;;7.30;1.00;;;;;;5155118;27;20236;-75
2023/10/19 01:17:43;;;;;;;18.48;16.48;;;7.20;1.00;;;;;;5131099;27;20318;-75
2023/10/19 01:20:19;;;;;;;18.92;16.08;;;7.30;1.00;;;;;;5133574;27;20250;-76
2023/10/19 01:23:20;;;;;;;20.15;16.17;;;7.20;1.00;;;;;;5130656;27;20244;-76
2023/10/19 01:25:50;;;;;;;19.80;17.23;;;7.30;1.00;;;;;;5126888;27;20232;-75
2023/10/19 01:28:17;;;;;;;18.30;16.25;;;7.30;1.00;;;;;;5144258;27;20231;-74
2023/10/19 01:30:45;;;;;;;20.17;17.10;;;7.30;1.00;;;;;;5151347;27;21247;-75
2023/10/19 01:33:15;;;;;;;17.00;15.10;;;7.40;1.00;;;;;;5137092;27;20345;-75
2023/10/19 01:38:31;;;;;;;20.08;15.32;;;7.30;1.00;;;;;;5132463;27;20230;-77
2023/10/19 01:40:59;;;;;;;20.05;17.23;;;7.30;1.00;;;;;;5130616;27;20247;-72
2023/10/19 01:43:30;;;;;;;20.02;17.90;;;7.30;1.00;;;;;;5131664;27;20236;-71
2023/10/19 01:45:56;;;;;;;22.77;17.50;;;7.30;1.00;;;;;;5127156;27;20231;-70
2023/10/19 01:48:33;;;;;;;20.87;15.93;;;7.30;1.00;;;;;;5130842;27;20240;-71
2023/10/19 01:51:00;;;;;;;20.98;18.05;;;7.30;1.00;;;;;;5144750;27;20462;-72
2023/10/19 01:53:27;;;;;;;19.05;17.05;;;7.20;1.00;;;;;;5134085;27;20237;-71
2023/10/19 01:55:58;;;;;;;19.45;17.42;;;7.30;1.00;;;;;;5132414;27;20269;-70
2023/10/19 01:58:26;;;;;;;19.53;17.23;;;7.30;1.00;;;;;;5131088;27;20242;-69
2023/10/19 02:00:55;;;;;;;21.25;17.02;;;7.30;1.00;;;;;;5131753;27;20473;-73
2023/10/19 02:03:24;;;;;;;21.23;17.88;;;7.30;1.00;;;;;;5144190;27;20227;-69
2023/10/19 02:05:58;;;;;;;20.08;17.63;;;7.30;1.00;;;;;;5133692;27;20234;-71
2023/10/19 02:08:26;;;;;;;22.05;18.48;;;7.20;1.00;;;;;;5142968;27;20598;-71
2023/10/19 02:10:55;;;;;;;21.17;17.80;;;7.20;1.00;;;;;;5148422;27;20301;-72
2023/10/19 02:13:21;;;;;;;21.30;18.13;;;7.30;1.00;;;;;;5131970;27;20236;-72
2023/10/19 02:15:49;;;;;;;20.88;18.67;;;7.20;1.00;;;;;;5129605;27;20276;-69
2023/10/19 02:18:17;;;;;;;21.33;17.48;;;7.20;1.00;;;;;;5129587;27;20243;-69
2023/10/19 02:20:48;;;;;;;21.48;17.48;;;7.20;1.00;;;;;;5129321;27;20239;-70
2023/10/19 02:23:15;;;;;;;20.58;18.38;;;7.30;1.00;;;;;;5125676;27;20352;-69
2023/10/19 02:25:43;;;;;;;21.40;17.92;;;7.30;1.00;;;;;;5132259;27;20297;-70
2023/10/19 02:28:11;;;;;;;22.00;17.20;;;7.20;1.00;;;;;;5148897;27;21373;-71
2023/10/19 02:30:40;;;;;;;22.70;17.58;;;7.20;1.00;;;;;;5127338;27;20250;-69
2023/10/19 02:33:08;;;;;;;22.10;17.88;;;7.30;1.00;;;;;;5135989;27;20232;-69
2023/10/19 02:35:37;;;;;;;23.63;19.10;;;7.30;1.00;;;;;;5149349;27;20214;-69
2023/10/19 02:38:04;;;;;;;23.60;18.55;;;7.30;1.00;;;;;;5151168;27;20231;-73
2023/10/19 02:40:32;;;;;;;19.85;17.13;;;7.30;1.00;;;;;;5148723;27;20721;-71
2023/10/19 02:43:02;;;;;;;24.25;17.90;;;7.30;1.00;;;;;;5146648;27;20231;-70
2023/10/19 02:45:31;;;;;;;21.75;17.17;;;7.40;1.00;;;;;;5146701;27;20354;-71
2023/10/19 02:47:58;;;;;;;22.02;19.00;;;7.40;1.00;;;;;;5146158;27;21003;-73
2023/10/19 02:50:27;;;;;;;23.02;18.60;;;7.40;1.00;;;;;;5154494;27;20239;-72
2023/10/19 02:52:53;;;;;;;24.00;17.73;;;7.40;1.00;;;;;;5151391;27;20241;-76
2023/10/19 02:55:23;;;;;;;24.60;19.83;;;7.40;1.00;;;;;;5144296;27;20236;-76
2023/10/19 02:57:50;;;;;;;21.88;18.48;;;7.50;1.00;;;;;;5148432;27;21000;-75
2023/10/19 03:00:20;;;;;;;24.95;19.58;;;7.50;1.00;;;;;;5149643;27;20246;-75
2023/10/19 03:02:48;;;;;;;19.70;17.60;;;7.50;1.00;;;;;;5141907;27;20234;-76
2023/10/19 03:05:17;;;;;;;23.52;17.75;;;7.50;1.00;;;;;;5141281;27;20480;-77
2023/10/19 03:07:43;;;;;;;20.25;18.25;;;7.60;1.00;;;;;;5152679;27;20238;-77
2023/10/19 03:10:22;;;;;;;22.15;18.52;;;7.60;1.00;;;;;;5152470;27;20238;-74
2023/10/19 03:12:49;;;;;;;21.33;19.02;;;7.50;1.00;;;;;;5130194;27;21095;-73
2023/10/19 03:15:17;;;;;;;20.63;18.42;;;7.50;1.00;;;;;;5139587;27;20231;-73
2023/10/19 03:17:43;;;;;;;20.15;17.25;;;7.50;1.00;;;;;;5129174;27;20276;-75
2023/10/19 03:20:14;;;;;;;23.73;17.67;;;7.50;1.00;;;;;;5150732;27;20733;-74
2023/10/19 03:22:40;;;;;;;22.35;17.92;;;7.50;1.00;;;;;;5147783;27;20252;-76
2023/10/19 03:25:48;;;;;;;22.55;19.20;;;7.50;1.00;;;;;;5137060;27;20227;-75
2023/10/19 03:28:08;;;;;;;23.35;19.73;;;7.60;1.00;;;;;;5152880;27;20332;-74
2023/10/19 03:30:39;;;;;;;20.92;18.75;;;7.50;1.00;;;;;;5140105;27;20268;-73
2023/10/19 03:33:08;;;;;;;23.48;19.08;;;7.50;1.00;;;;;;5136671;27;20286;-74
2023/10/19 03:35:41;;;;;;;21.33;17.88;;;7.50;1.00;;;;;;5150470;27;20714;-76
2023/10/19 03:38:14;;;;;;;19.88;17.65;;;7.50;1.00;;;;;;5141423;27;20837;-76
2023/10/19 03:40:46;;;;;;;20.85;18.65;;;7.50;1.00;;;;;;5130982;27;20750;-76
2023/10/19 03:43:17;;;;;;;24.13;18.65;;;7.50;1.00;;;;;;5130276;27;20754;-76
2023/10/19 03:45:50;;;;;;;22.83;19.10;;;7.50;1.00;;;;;;5143473;27;20318;-75
2023/10/19 03:48:23;;;;;;;22.30;19.35;;;7.50;1.00;;;;;;5134428;27;20284;-76
2023/10/19 03:50:55;;;;;;;25.80;19.58;;;7.50;1.00;;;;;;5142761;27;20888;-75
2023/10/19 03:53:22;;;;;;;26.30;20.73;;;7.50;1.00;;;;;;5149241;27;20227;-76
2023/10/19 03:55:52;;;;;;;21.85;19.48;;;7.50;1.00;;;;;;5153376;27;21235;-76
2023/10/19 03:58:21;;;;;;;20.58;18.55;;;7.50;1.00;;;;;;5151660;27;20290;-75
2023/10/19 04:00:49;;;;;;;21.73;19.35;;;7.50;1.00;;;;;;5152838;27;20274;-72
2023/10/19 04:03:18;;;;;;;25.08;20.25;;;7.50;1.00;;;;;;5148713;27;20241;-72
2023/10/19 04:05:46;;;;;;;21.85;19.42;;;7.50;1.00;;;;;;5148573;27;20280;-71
2023/10/19 04:08:20;;;;;;;22.88;20.42;;;7.50;1.00;;;;;;5130528;27;20242;-71
2023/10/19 04:11:07;;;;;;;22.10;19.70;;;7.40;1.00;;;;;;5131530;27;20258;-73
2023/10/19 04:13:35;;;;;;;26.65;20.85;;;7.50;1.00;;;;;;5143290;27;20604;-72
2023/10/19 04:16:02;;;;;;;22.30;19.90;;;7.50;1.00;;;;;;5155881;27;20318;-71
2023/10/19 04:18:29;;;;;;;22.63;20.25;;;7.60;1.00;;;;;;5152528;27;20415;-71
2023/10/19 04:20:58;;;;;;;21.38;19.05;;;7.60;1.00;;;;;;5149924;27;20346;-71
2023/10/19 04:23:28;;;;;;;27.50;20.77;;;7.60;1.00;;;;;;5153311;27;20234;-72
2023/10/19 04:25:58;;;;;;;22.88;19.42;;;7.60;1.00;;;;;;5152303;27;20257;-71
2023/10/19 04:28:33;;;;;;;21.73;19.42;;;7.60;1.00;;;;;;5150964;27;20241;-70
2023/10/19 04:31:06;;;;;;;24.33;20.33;;;7.70;1.00;;;;;;5151608;27;20347;-70
2023/10/19 04:33:34;;;;;;;25.02;21.48;;;7.70;1.00;;;;;;5153144;27;20238;-75
2023/10/19 04:36:02;;;;;;;25.90;21.10;;;7.70;1.00;;;;;;5151561;27;20324;-77
2023/10/19 04:38:33;;;;;;;25.30;21.40;;;7.60;1.00;;;;;;5150928;27;20239;-71
2023/10/19 04:41:08;;;;;;;26.80;20.65;;;7.60;1.00;;;;;;5152473;27;20249;-70
2023/10/19 04:43:36;;;;;;;23.45;20.58;;;7.60;1.00;;;;;;5142786;27;20254;-71
2023/10/19 04:46:10;;;;;;;28.75;21.35;;;7.50;1.00;;;;;;5129821;27;20231;-71
2023/10/19 04:48:39;;;;;;;23.02;20.63;;;7.40;1.00;;;;;;5132344;27;20950;-71
2023/10/19 04:51:10;;;;;;;23.60;21.10;;;7.40;1.00;;;;;;5131660;27;20746;-75
2023/10/19 04:53:38;;;;;;;34.60;21.23;;;7.40;1.00;;;;;;5127765;27;20247;-74
2023/10/19 04:56:08;;;;;;;24.95;22.23;;;7.40;1.00;;;;;;5145063;27;20329;-75
2023/10/19 04:58:36;;;;;;;25.05;21.05;;;7.50;1.00;;;;;;5132847;27;20271;-75
2023/10/19 05:01:06;;;;;;;23.38;19.73;;;7.50;1.00;;;;;;5141960;27;20684;-78
2023/10/19 05:03:34;;;;;;;26.70;21.08;;;7.50;1.00;;;;;;5129689;27;20239;-75
2023/10/19 05:06:02;;;;;;;24.05;21.45;;;7.50;1.00;;;;;;5148778;27;20687;-74
2023/10/19 05:08:29;;;;;;;25.60;20.88;;;7.40;1.00;;;;;;5150594;27;20244;-74
2023/10/19 05:10:59;;;;;;;28.23;21.95;;;7.40;1.00;;;;;;5147589;27;20287;-73
2023/10/19 05:13:27;;;;;;;31.77;26.08;;;7.30;1.00;;;;;;5150861;27;20273;-72
2023/10/19 05:15:54;;;;;;;24.60;20.80;;;7.30;1.00;;;;;;5142181;27;20234;-74
2023/10/19 05:18:22;;;;;;;25.02;22.33;;;7.30;1.00;;;;;;5152476;27;20287;-73
2023/10/19 05:20:49;;;;;;;23.38;20.88;;;7.20;1.00;;;;;;5136472;27;20325;-71
2023/10/19 05:23:17;;;;;;;27.00;23.90;;;7.30;1.00;;;;;;5136598;27;20321;-75
2023/10/19 05:25:44;;;;;;;25.90;22.30;;;7.30;1.00;;;;;;5151676;27;20403;-72
2023/10/19 05:28:14;;;;;;;27.10;23.85;;;7.30;1.00;;;;;;5145477;27;20243;-72
2023/10/19 05:30:41;;;;;;;25.38;22.33;;;7.40;1.00;;;;;;5147654;27;20244;-71
2023/10/19 05:33:08;;;;;;;29.75;21.42;;;7.30;1.00;;;;;;5146438;27;20331;-73
2023/10/19 05:35:40;;;;;;;25.17;22.45;;;7.40;1.00;;;;;;5144799;27;20263;-72
2023/10/19 05:38:08;;;;;;;24.93;21.83;;;7.40;1.00;;;;;;5145759;27;20258;-75
2023/10/19 05:40:35;;;;;;;26.67;22.58;;;7.40;1.00;;;;;;5145822;27;20484;-72
2023/10/19 05:43:03;;;;;;;30.30;24.63;;;7.40;1.00;;;;;;5145946;27;20716;-71
2023/10/19 05:45:32;;;;;;;24.65;20.48;;;7.40;1.00;;;;;;5145824;27;20339;-72
2023/10/19 05:48:00;;;;;;;26.23;22.35;;;7.50;1.00;;;;;;5148447;27;20239;-72
2023/10/19 05:50:28;;;;;;;29.23;22.70;;;7.40;1.00;;;;;;5118861;27;20243;-73
2023/10/19 05:52:57;;;;;;;27.45;22.85;;;7.50;1.00;;;;;;5139611;27;20234;-73
2023/10/19 05:55:24;;;;;;;25.52;21.90;;;7.50;1.00;;;;;;5133296;27;20369;-71
2023/10/19 05:57:52;;;;;;;31.05;22.92;;;7.40;1.00;;;;;;5145959;27;20235;-73
2023/10/19 06:00:20;;;;;;;24.10;20.98;;;7.50;1.00;;;;;;5150288;27;20234;-73
2023/10/19 06:02:51;;;;;;;27.52;22.88;;;7.50;1.00;;;;;;5144144;27;20636;-73
2023/10/19 06:05:19;;;;;;;25.27;21.88;;;7.40;1.00;;;;;;5145668;27;20319;-72
2023/10/19 06:07:46;;;;;;;29.40;23.02;;;7.40;1.00;;;;;;5146275;27;20236;-71
2023/10/19 06:10:16;;;;;;;29.05;22.83;;;7.40;1.00;;;;;;5144103;27;20249;-72
2023/10/19 06:12:44;;;;;;;29.95;25.08;;;7.40;1.00;;;;;;5136316;27;20245;-72
2023/10/19 06:15:12;;;;;;;28.65;24.05;;;7.30;1.00;;;;;;5141584;27;20708;-73
2023/10/19 06:17:40;;;;;;;24.80;22.13;;;7.20;1.00;;;;;;5143971;27;21732;-72
2023/10/19 06:20:19;;;;;;;27.98;24.80;;;7.10;1.00;;;;;;5148584;27;20244;-72
2023/10/19 06:22:49;;;;;;;30.83;24.88;;;7.00;1.00;;;;;;5142479;27;20231;-77
2023/10/19 06:25:18;;;;;;;26.77;23.58;;;6.90;1.00;;;;;;5129832;27;20233;-76
2023/10/19 06:27:45;;;;;;;30.83;26.00;;;6.90;1.00;;;;;;5113838;27;20346;-77
2023/10/19 06:30:17;;;;;;;28.02;25.08;;;6.90;1.00;;;;;;5131711;27;20329;-75
2023/10/19 06:32:48;;;;;;;30.92;26.80;;;6.80;1.00;;;;;;5142684;27;20327;-74
2023/10/19 06:35:17;;;;;;;31.42;25.67;;;6.80;1.00;;;;;;5150135;27;20319;-76
2023/10/19 06:37:44;;;;;;;29.67;25.77;;;6.80;1.00;;;;;;5152657;27;20328;-77
2023/10/19 06:40:13;;;;;;;42.50;35.97;;;6.80;1.00;;;;;;5148679;27;20413;-78
2023/10/19 06:42:40;;;;;;;29.75;25.10;;;6.80;1.00;;;;;;5150507;27;20231;-78
2023/10/19 06:45:09;;;;;;;27.92;24.63;;;6.80;1.00;;;;;;5152485;27;20245;-76
2023/10/19 06:47:37;;;;;;;30.35;24.88;;;6.70;1.00;;;;;;5149994;27;20233;-76
2023/10/19 06:50:09;;;;;;;28.90;24.35;;;6.80;1.00;;;;;;5149403;27;20709;-74
2023/10/19 06:52:38;;;;;;;30.30;25.38;;;6.90;1.00;;;;;;5152640;27;20812;-76
2023/10/19 06:55:07;;;;;;;27.27;24.02;;;6.90;1.00;;;;;;5150392;27;20431;-77
2023/10/19 06:57:34;;;;;;;31.45;24.02;;;6.90;1.00;;;;;;5151707;27;20280;-77
2023/10/19 07:00:10;;;;;;;29.75;26.52;;;6.90;1.00;;;;;;5152127;27;20244;-78
2023/10/19 07:02:37;;;;;;;27.77;24.67;;;6.90;1.00;;;;;;5149989;27;20263;-76
2023/10/19 07:05:05;;;;;;;25.00;22.17;;;6.90;1.00;;;;;;5149440;27;20245;-76
2023/10/19 07:07:33;;;;;;;30.10;24.55;;;6.90;1.00;;;;;;5128332;27;20266;-76
2023/10/19 07:10:03;;;;;;;28.60;25.52;;;6.80;1.00;;;;;;5143730;27;20657;-75
2023/10/19 07:12:30;;;;;;;30.95;24.95;;;6.80;1.00;;;;;;5153505;27;20698;-75
2023/10/19 07:15:00;;;;;;;27.40;23.95;;;6.90;1.00;;;;;;5145045;27;20254;-75
2023/10/19 07:17:31;;;;;;;31.80;24.60;;;7.00;1.00;;;;;;5152436;27;20244;-75
2023/10/19 07:19:59;;;;;;;25.77;22.92;;;7.00;1.00;;;;;;5133384;27;20241;-73
2023/10/19 07:22:27;;;;;;;34.78;30.98;;;7.00;1.00;;;;;;5149373;27;20236;-74
2023/10/19 07:24:54;;;;;;;29.77;24.17;;;7.10;1.00;;;;;;5150855;27;20710;-76
2023/10/19 07:27:23;;;;;;;24.70;21.90;;;7.10;1.00;;;;;;5148677;27;20230;-75
2023/10/19 07:29:50;;;;;;;26.60;23.45;;;7.10;1.00;;;;;;5148192;27;20292;-75
2023/10/19 07:32:17;;;;;;;27.75;23.90;;;7.20;1.00;;;;;;5128141;27;20233;-74
2023/10/19 07:34:44;;;;;;;26.90;23.27;;;7.30;1.00;;;;;;5138409;27;20236;-76
2023/10/19 07:37:15;;;;;;;24.65;22.13;;;7.40;1.00;;;;;;5123961;27;20242;-81
2023/10/19 07:39:45;;;;;;;25.70;23.08;;;7.50;1.00;;;;;;5150928;27;20287;-76
2023/10/19 07:42:12;;;;;;;25.25;20.88;;;7.40;1.00;;;;;;5143073;27;20233;-71
2023/10/19 07:44:43;;;;;;;28.77;24.35;;;7.40;1.00;;;;;;5149201;27;20262;-73
2023/10/19 07:47:12;;;;;;;24.50;21.90;;;7.50;1.00;;;;;;5152356;27;20324;-73
2023/10/19 07:49:40;;;;;;;27.90;22.55;;;7.60;1.00;;;;;;5151610;27;20865;-74
2023/10/19 07:52:08;;;;;;;24.83;21.10;;;7.60;1.00;;;;;;5148748;27;20240;-73
2023/10/19 07:54:35;;;;;;;26.92;22.80;;;7.60;1.00;;;;;;5148917;27;20238;-71
2023/10/19 07:57:05;;;;;;;27.48;24.67;;;7.60;1.00;;;;;;5129391;27;20496;-74
2023/10/19 07:59:35;;;;;;;26.93;24.00;;;7.70;1.00;;;;;;5139777;27;20765;-73
2023/10/19 08:02:04;;;;;;;24.80;21.70;;;7.80;1.00;;;;;;5140868;27;20544;-73
2023/10/19 08:04:31;;;;;;;24.40;21.92;;;7.90;1.00;;;;;;5132133;27;21032;-75
2023/10/19 08:06:58;;;;;;;26.80;21.90;;;7.90;1.00;;;;;;5132663;27;20330;-74
2023/10/19 08:09:31;;;;;;;24.70;20.40;;;8.10;1.00;;;;;;5131503;27;20535;-74
2023/10/19 08:11:59;;;;;;;27.40;21.65;;;8.00;1.00;;;;;;5140276;27;20236;-73
2023/10/19 08:14:26;;;;;;;24.60;20.58;;;7.90;1.00;;;;;;5140435;27;20227;-74
2023/10/19 08:16:54;;;;;;;25.63;21.65;;;7.90;1.00;;;;;;5134587;27;20322;-73
2023/10/19 08:19:22;;;;;;;22.33;20.05;;;7.90;1.00;;;;;;5142964;27;20260;-74
2023/10/19 08:21:49;;;;;;;27.17;21.45;;;8.00;1.00;;;;;;5145348;27;20320;-73
2023/10/19 08:24:17;;;;;;;27.42;22.13;;;8.00;1.00;;;;;;5143092;27;20258;-74
2023/10/19 08:26:45;;;;;;;23.50;21.00;;;8.00;1.00;;;;;;5140594;27;21123;-76
2023/10/19 08:29:13;;;;;;;30.17;21.40;;;8.00;1.00;;;;;;5151431;27;21008;-75
2023/10/19 08:31:41;;;;;;;23.98;21.13;;;8.10;1.00;;;;;;5144982;27;20238;-75
2023/10/19 08:34:09;;;;;;;24.23;20.73;;;8.10;1.00;;;;;;5138435;27;20245;-71
2023/10/19 08:36:38;;;;;;;23.70;21.15;;;8.20;1.00;;;;;;5149285;27;20301;-74
2023/10/19 08:39:06;;;;;;;22.30;20.00;;;8.20;1.00;;;;;;5147357;27;20241;-73
2023/10/19 08:41:34;;;;;;;25.33;21.88;;;8.20;1.00;;;;;;5147894;27;20230;-73
2023/10/19 08:44:03;;;;;;;24.55;21.17;;;8.20;1.00;;;;;;5139183;27;20343;-72
2023/10/19 08:46:31;;;;;;;25.20;21.87;;;8.40;1.00;;;;;;5141645;27;20307;-73
2023/10/19 08:48:59;;;;;;;25.93;22.07;;;8.40;1.00;;;;;;5132382;27;20455;-76
2023/10/19 08:51:28;;;;;;;23.43;20.87;;;8.50;1.00;;;;;;5136869;27;20479;-74
2023/10/19 08:53:57;;;;;;;25.57;21.53;;;8.60;1.00;;;;;;5148553;27;20463;-73
2023/10/19 08:56:25;;;;;;;25.70;21.27;;;8.50;1.00;;;;;;5147620;27;20931;-72
2023/10/19 08:58:53;;;;;;;27.33;22.90;;;8.60;1.00;;;;;;5149629;27;21125;-74
2023/10/19 09:01:23;;;;;;;22.90;20.37;;;8.50;1.00;;;;;;5147814;27;20517;-74
2023/10/19 09:03:51;;;;;;;28.23;20.25;;;8.40;1.00;;;;;;5140076;27;20473;-75
2023/10/19 09:06:18;;;;;;;26.73;20.63;;;8.50;1.00;;;;;;5139911;27;20236;-76
2023/10/19 09:08:48;;;;;;;23.50;20.80;;;8.60;1.00;;;;;;5147672;27;21320;-75
2023/10/19 09:11:20;;;;;;;23.83;21.27;;;8.60;1.00;;;;;;5150221;27;20468;-74
2023/10/19 09:13:49;;;;;;;24.70;20.07;;;8.60;1.00;;;;;;5140379;27;20451;-76
2023/10/19 09:16:19;;;;;;;23.23;20.53;;;8.70;1.00;;;;;;5149274;27;20463;-74
2023/10/19 09:18:47;;;;;;;23.23;20.10;;;8.70;1.00;;;;;;5148678;27;20448;-75
2023/10/19 09:21:24;;;;;;;23.73;21.00;;;8.80;1.00;;;;;;5150371;27;20435;-74
2023/10/19 09:23:53;;;;;;;28.03;21.40;;;8.90;1.00;;;;;;5150539;27;20491;-75
2023/10/19 09:26:22;;;;;;;28.00;21.20;;;8.80;1.00;;;;;;5151312;27;20509;-77
2023/10/19 09:28:51;;;;;;;24.23;21.60;;;8.90;1.00;;;;;;5151204;27;20468;-74
2023/10/19 09:31:20;;;;;;;24.57;20.90;;;9.10;1.00;;;;;;5144025;27;20590;-78
2023/10/19 09:33:48;;;;;;;23.13;20.20;;;9.00;1.00;;;;;;5140743;27;20591;-75
2023/10/19 09:36:16;;;;;;;24.73;20.80;;;8.90;1.00;;;;;;5150700;27;20464;-73
2023/10/19 09:38:48;;;;;;;22.50;19.47;;;8.90;1.00;;;;;;5148838;27;20447;-75
2023/10/19 09:41:18;;;;;;;26.73;20.37;;;9.00;1.00;;;;;;5149860;27;20580;-75
2023/10/19 09:43:48;;;;;;;24.10;21.03;;;9.10;1.00;;;;;;5146289;27;20452;-75
2023/10/19 09:46:22;;;;;;;25.60;20.83;;;9.00;1.00;;;;;;5152391;27;20459;-75
2023/10/19 09:48:50;;;;;;;24.13;20.70;;;9.20;1.00;;;;;;5147067;27;20573;-71
2023/10/19 09:51:19;;;;;;;29.33;21.30;;;9.40;1.00;;;;;;5138178;27;20567;-73
2023/10/19 09:53:50;;;;;;;21.13;18.40;;;9.50;1.00;;;;;;5142312;27;20576;-71
2023/10/19 09:56:22;;;;;;;27.63;20.57;;;9.40;1.00;;;;;;5135517;27;20471;-71
2023/10/19 09:58:55;;;;;;;23.47;21.07;;;9.40;1.00;;;;;;5147266;27;20490;-70
2023/10/19 10:01:23;;;;;;;22.07;19.87;;;9.40;1.00;;;;;;5149093;27;20468;-73
2023/10/19 10:03:52;;;;;;;22.47;19.70;;;9.50;1.00;;;;;;5135902;27;20456;-74
2023/10/19 10:06:28;;;;;;;21.13;19.03;;;9.50;1.00;;;;;;5124425;27;20486;-75
2023/10/19 10:08:57;;;;;;;21.63;19.37;;;9.50;1.00;;;;;;5145843;27;20462;-73
2023/10/19 10:11:26;;;;;;;23.00;18.60;;;9.40;1.00;;;;;;5149531;27;21267;-72
2023/10/19 10:13:56;;;;;;;23.33;20.07;;;9.30;1.00;;;;;;5145952;27;20524;-74
2023/10/19 10:16:25;;;;;;;21.23;18.70;;;9.30;1.00;;;;;;5142070;27;20564;-73
2023/10/19 10:18:58;;;;;;;22.73;19.80;;;9.30;1.00;;;;;;5148557;27;21054;-74
2023/10/19 10:21:27;;;;;;;21.43;19.30;;;9.30;1.00;;;;;;5143355;27;20463;-73
2023/10/19 10:23:55;;;;;;;21.87;19.30;;;9.50;1.00;;;;;;5146662;27;20551;-73
2023/10/19 10:26:25;;;;;;;23.03;19.77;;;9.50;1.00;;;;;;5149518;27;20554;-74
2023/10/19 10:29:19;;;;;;;24.03;21.50;;;9.50;1.00;;;;;;5150005;27;20444;-73
2023/10/19 10:31:48;;;;;;;21.67;19.57;;;9.60;1.00;;;;;;5148559;27;20599;-74
2023/10/19 10:34:44;;;;;;;25.77;19.80;;;9.60;1.00;;;;;;5148458;27;21291;-74
2023/10/19 10:37:13;;;;;;;22.57;20.37;;;9.50;1.00;;;;;;5134857;27;21247;-72
2023/10/19 10:39:41;;;;;;;23.60;21.10;;;9.40;1.00;;;;;;5136421;27;20471;-72
2023/10/19 10:42:09;;;;;;;23.80;21.20;;;9.30;1.00;;;;;;5143314;27;21339;-74
2023/10/19 10:44:42;;;;;;;25.37;21.50;;;9.20;1.00;;;;;;5147570;27;20456;-72
2023/10/19 10:47:12;;;;;;;23.37;20.77;;;9.10;1.00;;;;;;5137305;27;20460;-72
2023/10/19 10:49:52;;;;;;;25.77;20.10;;;9.00;1.00;;;;;;5141318;27;21304;-73
2023/10/19 10:52:31;;;;;;;24.40;21.20;;;8.90;1.00;;;;;;5147300;27;20537;-73
2023/10/19 10:54:58;;;;;;;23.60;19.70;;;8.90;1.00;;;;;;5130723;27;20459;-73
2023/10/19 10:57:32;;;;;;;24.80;21.80;;;8.90;1.00;;;;;;5149251;27;20840;-72
2023/10/19 11:00:07;;;;;;;23.57;20.20;;;8.90;1.00;;;;;;5148208;27;20458;-73
2023/10/19 11:02:35;;;;;;;22.27;19.90;;;8.80;1.00;;;;;;5138144;27;20959;-73
2023/10/19 11:05:06;;;;;;;22.90;20.43;;;8.90;1.00;;;;;;5148075;27;20451;-73
2023/10/19 11:07:34;;;;;;;23.67;21.20;;;8.80;1.00;;;;;;5148431;27;20476;-75
2023/10/19 11:10:02;;;;;;;23.87;20.73;;;8.70;1.00;;;;;;5150035;27;20455;-73
2023/10/19 11:12:29;;;;;;;25.67;21.27;;;8.70;1.00;;;;;;5142209;27;20534;-71
2023/10/19 11:14:58;;;;;;;24.43;21.47;;;8.60;1.00;;;;;;5130438;27;20547;-74
2023/10/19 11:17:31;;;;;;;25.73;21.70;;;8.70;1.00;;;;;;5145002;27;20446;-70
2023/10/19 11:19:59;;;;;;;26.70;21.90;;;8.70;1.00;;;;;;5152240;27;20956;-76
2023/10/19 11:22:27;;;;;;;24.90;22.23;;;8.60;1.00;;;;;;5151144;27;20492;-77
2023/10/19 11:24:56;;;;;;;26.80;22.27;;;8.60;1.00;;;;;;5151021;27;20896;-74
2023/10/19 11:27:26;;;;;;;24.73;22.00;;;8.60;1.00;;;;;;5151493;27;20468;-73
2023/10/19 11:29:57;;;;;;;27.27;23.35;;;8.60;1.00;;;;;;5130084;27;21308;-76
2023/10/19 11:32:25;;;;;;;24.58;21.98;;;8.50;1.00;;;;;;5153119;27;20233;-76
2023/10/19 11:34:57;;;;;;;33.00;28.37;;;8.60;1.00;;;;;;5150180;27;20349;-74
2023/10/19 11:37:26;;;;;;;27.57;24.30;;;8.50;1.00;;;;;;5152417;27;20618;-74
2023/10/19 11:39:57;;;;;;;29.17;25.03;;;8.50;1.00;;;;;;5133059;27;20444;-75
2023/10/19 11:42:24;;;;;;;26.43;23.70;;;8.50;1.00;;;;;;5147955;27;20926;-75
2023/10/19 11:44:52;;;;;;;30.97;26.03;;;8.50;1.00;;;;;;5138950;27;20471;-74
2023/10/19 11:47:20;;;;;;;27.03;24.10;;;8.50;1.00;;;;;;5140902;27;20522;-75
2023/10/19 11:49:48;;;;;;;28.40;25.33;;;8.60;1.00;;;;;;5129585;27;20530;-74
2023/10/19 11:52:16;;;;;;;29.70;24.60;;;8.70;1.00;;;;;;5144045;27;20456;-76
2023/10/19 11:54:44;;;;;;;28.70;25.70;;;8.70;1.00;;;;;;5150494;27;20529;-76
2023/10/19 11:57:12;;;;;;;29.23;26.03;;;8.70;1.00;;;;;;5148612;27;20545;-75
2023/10/19 11:59:40;;;;;;;28.87;25.43;;;8.60;1.00;;;;;;5141033;27;20502;-75
2023/10/19 12:02:09;;;;;;;30.27;25.93;;;8.50;1.00;;;;;;5130293;27;20484;-75
2023/10/19 12:04:36;;;;;;;33.13;27.13;;;8.50;1.00;;;;;;5130555;27;20461;-74
2023/10/19 12:07:05;;;;;;;31.67;26.20;;;8.60;1.00;;;;;;5148099;27;20483;-75
2023/10/19 12:09:36;;;;;;;30.70;26.80;;;8.60;1.00;;;;;;5148412;27;20423;-73
2023/10/19 12:12:05;;;;;;;45.53;35.93;;;8.60;1.00;;;;;;5144951;27;20453;-75
2023/10/19 12:14:34;;;;;;;30.33;27.00;;;8.60;1.00;;;;;;5138538;27;20489;-74
2023/10/19 12:17:02;;;;;;;31.93;27.47;;;8.60;1.00;;;;;;5150068;27;21360;-75
2023/10/19 12:19:30;;;;;;;28.77;25.77;;;8.60;1.00;;;;;;5150697;27;20530;-74
2023/10/19 12:21:58;;;;;;;31.70;26.87;;;8.70;1.00;;;;;;5133323;27;20494;-76
2023/10/19 12:24:28;;;;;;;31.03;26.50;;;8.70;1.00;;;;;;5136301;27;20496;-77
2023/10/19 12:26:56;;;;;;;28.70;25.60;;;8.70;1.00;;;;;;5134353;27;20464;-73
2023/10/19 12:29:23;;;;;;;30.47;25.97;;;8.70;1.00;;;;;;5151502;27;20458;-74
2023/10/19 12:31:50;;;;;;;30.67;26.57;;;8.60;1.00;;;;;;5140879;27;20534;-74
2023/10/19 12:34:18;;;;;;;30.83;26.87;;;8.60;1.00;;;;;;5150745;27;21009;-75
2023/10/19 12:36:46;;;;;;;30.63;27.43;;;8.70;1.00;;;;;;5151715;27;20484;-76
2023/10/19 12:39:35;;;;;;;31.63;28.37;;;8.70;1.00;;;;;;5150021;27;20507;-73
2023/10/19 12:42:04;;;;;;;27.20;24.40;;;8.80;1.00;;;;;;5128784;27;20544;-76
2023/10/19 12:44:39;;;;;;;31.43;26.23;;;8.80;1.00;;;;;;5136518;27;20653;-76
2023/10/19 12:47:09;;;;;;;30.67;26.10;;;8.70;1.00;;;;;;5126869;27;20565;-75
2023/10/19 12:49:36;;;;;;;34.00;28.90;;;8.60;1.00;;;;;;5129983;27;20877;-76
2023/10/19 12:52:06;;;;;;;28.70;25.80;;;8.60;1.00;;;;;;5130001;27;20956;-76
2023/10/19 12:54:34;;;;;;;30.53;25.90;;;8.60;1.00;;;;;;5137629;27;20554;-74
2023/10/19 12:57:06;;;;;;;35.23;29.03;;;8.60;1.00;;;;;;5150737;27;20468;-74
2023/10/19 12:59:37;;;;;;;30.33;26.90;;;8.70;1.00;;;;;;5150024;27;20547;-77
2023/10/19 13:02:04;;;;;;;34.93;28.40;;;8.70;1.00;;;;;;5151903;27;20452;-79
2023/10/19 13:04:31;;;;;;;36.90;27.90;;;8.70;1.00;;;;;;5150698;27;21072;-80